createdAt,value
2022-08-10T00:00:21.769Z,2.10
2022-08-10T00:02:23.550Z,1.63
2022-08-10T00:04:25.341Z,1.45
2022-08-10T00:06:27.396Z,1.63
2022-08-10T00:08:29.757Z,2.35
2022-08-10T00:12:53.643Z,0.93
2022-08-10T00:14:55.229Z,0.50
2022-08-10T00:16:56.995Z,3.65
2022-08-10T00:18:58.713Z,1.40
2022-08-10T00:21:00.537Z,2.25
2022-08-10T00:23:02.342Z,1.88
2022-08-10T00:25:05.294Z,6.07
2022-08-10T00:28:01.472Z,2.13
2022-08-10T00:29:28.831Z,2.30
2022-08-10T00:31:30.571Z,2.22
2022-08-10T00:33:32.403Z,1.30
2022-08-10T00:35:34.199Z,2.20
2022-08-10T00:37:36.146Z,1.20
2022-08-10T00:39:39.447Z,3.05
2022-08-10T00:41:41.416Z,1.75
2022-08-10T00:43:43.255Z,0.70
2022-08-10T00:45:45.023Z,2.03
2022-08-10T00:48:01.872Z,1.42
2022-08-10T00:50:05.687Z,2.08
2022-08-10T00:52:09.148Z,4.10
2022-08-10T00:54:11.404Z,0.60
2022-08-10T00:57:14.130Z,1.70
2022-08-10T01:00:51.117Z,2.25
2022-08-10T01:02:53.181Z,1.15
2022-08-10T01:05:00.376Z,0.70
2022-08-10T01:07:21.952Z,1.50
2022-08-10T01:09:42.609Z,0.75
2022-08-10T01:12:39.092Z,1.17
2022-08-10T01:14:56.773Z,2.50
2022-08-10T01:17:05.245Z,1.38
2022-08-10T01:19:18.643Z,1.88
2022-08-10T01:21:38.949Z,5.65
2022-08-10T01:24:17.769Z,0.95
2022-08-10T01:26:43.576Z,2.17
2022-08-10T01:29:03.892Z,1.13
2022-08-10T01:31:08.986Z,1.70
2022-08-10T01:33:59.194Z,1.10
2022-08-10T01:36:02.073Z,1.00
2022-08-10T01:38:03.820Z,3.63
2022-08-10T01:40:09.939Z,1.60
2022-08-10T01:42:16.810Z,0.68
2022-08-10T01:44:46.276Z,1.27
2022-08-10T01:46:56.950Z,1.50
2022-08-10T01:49:00.633Z,2.17
2022-08-10T01:51:10.204Z,1.15
2022-08-10T01:53:18.860Z,1.50
2022-08-10T01:55:21.697Z,2.20
2022-08-10T01:57:25.738Z,1.42
2022-08-10T01:59:35.203Z,0.77
2022-08-10T02:01:43.528Z,2.80
2022-08-10T02:04:05.052Z,6.38
2022-08-10T02:06:09.251Z,1.10
2022-08-10T02:08:14.929Z,3.05
2022-08-10T02:10:19.279Z,1.10
2022-08-10T02:12:26.402Z,1.30
2022-08-10T02:14:34.474Z,2.08
2022-08-10T02:16:39.710Z,1.02
2022-08-10T02:18:42.885Z,1.10
2022-08-10T02:20:48.509Z,5.57
2022-08-10T02:22:56.452Z,2.25
2022-08-10T02:25:00.220Z,3.55
2022-08-10T02:27:05.764Z,2.40
2022-08-10T02:29:09.971Z,1.50
2022-08-10T02:31:15.143Z,1.30
2022-08-10T02:33:20.143Z,0.93
2022-08-10T02:35:26.457Z,1.95
2022-08-10T02:37:37.469Z,5.70
2022-08-10T02:39:39.542Z,2.47
2022-08-10T02:46:48.631Z,0.80
2022-08-10T02:48:59.903Z,2.15
2022-08-10T02:51:08.734Z,1.95
2022-08-10T02:53:55.941Z,6.60
2022-08-10T02:55:50.968Z,0.98
2022-08-10T02:58:17.058Z,2.95
2022-08-10T03:00:18.583Z,1.67
2022-08-10T03:04:55.915Z,2.30
2022-08-10T03:07:06.085Z,2.15
2022-08-10T03:09:10.170Z,0.88
2022-08-10T03:12:35.281Z,3.22
2022-08-10T03:13:44.550Z,1.77
2022-08-10T03:15:47.207Z,1.58
2022-08-10T03:17:57.195Z,2.78
2022-08-10T03:20:33.705Z,2.90
2022-08-10T03:22:24.534Z,3.13
2022-08-10T03:24:30.499Z,2.65
2022-08-10T03:26:37.628Z,2.00
2022-08-10T03:28:39.990Z,1.73
2022-08-10T03:30:42.297Z,2.50
2022-08-10T03:32:44.880Z,2.47
2022-08-10T03:34:47.624Z,1.20
2022-08-10T03:36:49.494Z,1.02
2022-08-10T03:38:54.251Z,3.33
2022-08-10T03:40:58.931Z,1.65
2022-08-10T03:43:03.206Z,2.03
2022-08-10T03:45:06.391Z,2.47
2022-08-10T03:47:15.920Z,1.58
2022-08-10T03:49:20.520Z,1.50
2022-08-10T03:51:23.928Z,1.17
2022-08-10T03:54:04.508Z,2.55
2022-08-10T03:56:30.455Z,1.17
2022-08-10T03:58:12.042Z,2.10
2022-08-10T04:00:18.322Z,5.82
2022-08-10T04:02:43.627Z,3.80
2022-08-10T04:04:42.213Z,1.30
2022-08-10T04:06:44.953Z,2.05
2022-08-10T04:08:47.348Z,3.63
2022-08-10T04:10:49.132Z,2.28
2022-08-10T04:12:50.948Z,4.32
2022-08-10T04:14:53.740Z,2.15
2022-08-10T04:16:55.767Z,2.53
2022-08-10T04:18:57.750Z,2.15
2022-08-10T04:21:22.957Z,2.53
2022-08-10T04:23:30.432Z,2.20
2022-08-10T04:25:32.693Z,2.25
2022-08-10T04:27:34.535Z,2.15
2022-08-10T04:29:36.629Z,1.38
2022-08-10T04:31:40.440Z,2.72
2022-08-10T04:33:48.108Z,1.70
2022-08-10T04:35:51.563Z,4.18
2022-08-10T04:37:55.785Z,1.80
2022-08-10T04:39:57.752Z,2.20
2022-08-10T04:42:00.460Z,4.18
2022-08-10T04:44:02.283Z,1.65
2022-08-10T04:46:04.118Z,2.90
2022-08-10T04:48:42.084Z,2.60
2022-08-10T04:50:38.057Z,4.53
2022-08-10T04:54:41.923Z,11.05
2022-08-10T04:56:43.729Z,11.52
2022-08-10T04:58:45.513Z,14.20
2022-08-10T05:00:47.698Z,21.65
2022-08-10T05:02:49.589Z,16.23
2022-08-10T05:04:51.380Z,17.05
2022-08-10T05:06:53.107Z,15.80
2022-08-10T05:08:54.873Z,20.98
2022-08-10T05:10:56.857Z,13.20
2022-08-10T05:12:58.557Z,13.80
2022-08-10T05:15:00.338Z,11.80
2022-08-10T05:17:02.063Z,13.52
2022-08-10T05:19:03.903Z,9.00
2022-08-10T05:21:05.908Z,9.90
2022-08-10T05:23:07.725Z,10.02
2022-08-10T05:25:15.588Z,10.77
2022-08-10T05:27:17.317Z,7.03
2022-08-10T05:29:19.129Z,6.50
2022-08-10T05:31:22.608Z,7.43
2022-08-10T05:33:26.088Z,7.68
2022-08-10T05:35:34.654Z,6.32
2022-08-10T05:38:10.909Z,6.38
2022-08-10T05:40:15.024Z,5.95
2022-08-10T05:42:17.851Z,3.67
2022-08-10T05:44:22.142Z,2.35
2022-08-10T05:46:23.892Z,2.65
2022-08-10T05:48:54.900Z,2.15
2022-08-10T05:50:47.599Z,8.38
2022-08-10T05:52:49.973Z,3.28
2022-08-10T05:54:51.807Z,3.10
2022-08-10T05:56:58.091Z,3.38
2022-08-10T05:59:00.232Z,4.07
2022-08-10T06:01:06.003Z,3.72
2022-08-10T06:03:10.808Z,3.25
2022-08-10T06:05:30.554Z,1.13
2022-08-10T06:07:35.043Z,2.40
2022-08-10T06:09:37.977Z,1.60
2022-08-10T06:12:25.271Z,3.17
2022-08-10T06:14:43.091Z,1.52
2022-08-10T06:16:55.783Z,1.65
2022-08-10T06:18:58.676Z,1.63
2022-08-10T06:21:01.556Z,3.45
2022-08-10T06:23:04.334Z,2.25
2022-08-10T06:25:38.087Z,1.13
2022-08-10T06:27:34.815Z,2.90
2022-08-10T06:29:40.631Z,2.08
2022-08-10T06:31:50.492Z,0.70
2022-08-10T06:33:54.078Z,1.20
2022-08-10T06:35:57.216Z,1.63
2022-08-10T06:38:01.855Z,2.55
2022-08-10T06:40:04.316Z,2.45
2022-08-10T06:42:18.096Z,1.10
2022-08-10T06:44:28.137Z,0.65
2022-08-10T06:46:33.610Z,3.33
2022-08-10T06:48:46.907Z,1.92
2022-08-10T06:50:59.012Z,1.08
2022-08-10T06:53:02.930Z,1.10
2022-08-10T06:55:08.746Z,1.15
2022-08-10T06:57:19.085Z,0.68
2022-08-10T06:59:36.984Z,1.77
2022-08-10T07:01:41.343Z,2.95
2022-08-10T07:04:00.200Z,1.58
2022-08-10T07:06:05.357Z,3.58
2022-08-10T07:08:08.644Z,2.35
2022-08-10T07:10:11.675Z,1.80
2022-08-10T07:12:16.709Z,1.35
2022-08-10T07:14:19.434Z,1.63
2022-08-10T07:16:22.067Z,3.35
2022-08-10T07:18:25.572Z,2.60
2022-08-10T07:20:28.935Z,0.88
2022-08-10T07:23:54.401Z,2.83
2022-08-10T07:24:56.162Z,4.10
2022-08-10T07:26:59.347Z,1.77
2022-08-10T07:29:02.526Z,0.80
2022-08-10T07:31:29.763Z,2.72
2022-08-10T07:33:28.775Z,1.60
2022-08-10T07:35:41.403Z,0.85
2022-08-10T07:37:49.288Z,1.23
2022-08-10T07:39:58.430Z,1.38
2022-08-10T07:42:09.947Z,1.80
2022-08-10T07:44:12.597Z,1.92
2022-08-10T07:46:15.954Z,2.28
2022-08-10T07:48:24.814Z,3.13
2022-08-10T07:50:28.202Z,1.15
2022-08-10T07:52:37.980Z,3.92
2022-08-10T07:54:45.777Z,2.33
2022-08-10T07:56:50.365Z,0.75
2022-08-10T07:58:58.008Z,3.00
2022-08-10T08:01:01.183Z,7.43
2022-08-10T08:03:03.852Z,1.58
2022-08-10T08:05:09.517Z,1.58
2022-08-10T08:07:13.588Z,1.20
2022-08-10T08:09:15.615Z,1.55
2022-08-10T08:13:29.533Z,3.40
2022-08-10T08:16:17.370Z,2.75
2022-08-10T08:18:00.643Z,4.72
2022-08-10T08:20:04.173Z,1.83
2022-08-10T08:24:04.876Z,2.33
2022-08-10T08:24:35.333Z,3.78
2022-08-10T08:26:38.364Z,4.15
2022-08-10T08:28:41.659Z,0.85
2022-08-10T08:30:48.683Z,0.80
2022-08-10T08:32:51.418Z,1.05
2022-08-10T08:34:58.605Z,0.80
2022-08-10T08:37:05.820Z,3.17
2022-08-10T08:39:08.348Z,0.90
2022-08-10T08:41:28.080Z,1.80
2022-08-10T08:43:51.801Z,0.70
2022-08-10T08:46:38.399Z,2.47
2022-08-10T08:49:08.295Z,2.03
2022-08-10T08:52:07.825Z,4.72
2022-08-10T08:54:53.089Z,3.95
2022-08-10T08:57:47.254Z,1.27
2022-08-10T09:00:12.761Z,2.28
2022-08-10T09:02:16.233Z,1.95
2022-08-10T09:04:30.115Z,0.50
2022-08-10T09:07:03.282Z,1.50
2022-08-10T09:09:16.978Z,3.72
2022-08-10T09:11:19.231Z,7.40
2022-08-10T09:16:19.881Z,1.20
2022-08-10T09:18:40.204Z,1.80
2022-08-10T09:21:06.636Z,2.35
2022-08-10T09:24:01.776Z,3.08
2022-08-10T09:25:59.309Z,4.45
2022-08-10T09:28:04.240Z,1.42
2022-08-10T09:30:08.277Z,3.28
2022-08-10T09:36:15.817Z,3.33
2022-08-10T09:36:21.065Z,2.22
2022-08-10T09:37:39.455Z,2.17
2022-08-10T09:41:00.977Z,1.63
2022-08-10T09:43:26.540Z,3.08
2022-08-10T09:45:53.224Z,1.75
2022-08-10T09:48:30.088Z,4.47
2022-08-10T09:51:22.704Z,3.45
2022-08-10T09:53:57.705Z,2.08
2022-08-10T09:56:17.109Z,0.60
2022-08-10T09:58:42.451Z,1.63
2022-08-10T10:01:10.856Z,2.95
2022-08-10T10:03:44.578Z,0.40
2022-08-10T10:06:18.478Z,0.47
2022-08-10T10:08:25.134Z,0.95
2022-08-10T10:10:36.275Z,1.30
2022-08-10T10:12:55.362Z,2.50
2022-08-10T10:15:24.115Z,3.50
2022-08-10T10:17:55.181Z,0.55
2022-08-10T10:20:32.930Z,0.55
2022-08-10T10:22:41.899Z,4.72
2022-08-10T10:24:52.568Z,0.80
2022-08-10T10:26:58.962Z,4.00
2022-08-10T10:29:56.798Z,2.08
2022-08-10T10:31:58.330Z,1.38
2022-08-10T10:34:06.152Z,1.58
2022-08-10T10:36:10.020Z,1.27
2022-08-10T10:38:14.061Z,2.40
2022-08-10T10:40:18.311Z,0.85
2022-08-10T10:42:44.677Z,2.88
2022-08-10T10:44:58.435Z,2.30
2022-08-10T10:48:00.998Z,1.75
2022-08-10T10:50:15.621Z,2.05
2022-08-10T10:52:37.786Z,0.60
2022-08-10T10:55:04.751Z,0.95
2022-08-10T10:57:22.688Z,1.88
2022-08-10T11:00:02.164Z,2.40
2022-08-10T11:02:28.375Z,0.93
2022-08-10T11:04:59.088Z,2.17
2022-08-10T11:07:10.419Z,1.75
2022-08-10T11:10:08.662Z,0.95
2022-08-10T11:12:01.690Z,1.10
2022-08-10T11:14:25.043Z,0.60
2022-08-10T11:16:47.232Z,2.28
2022-08-10T11:18:49.051Z,2.60
2022-08-10T11:21:00.422Z,0.77
2022-08-10T11:23:14.413Z,1.48
2022-08-10T11:25:29.873Z,0.57
2022-08-10T11:28:00.360Z,1.50
2022-08-10T11:30:02.190Z,1.15
2022-08-10T11:32:27.496Z,2.22
2022-08-10T11:34:47.534Z,2.15
2022-08-10T11:37:25.451Z,1.83
2022-08-10T11:39:49.398Z,3.85
2022-08-10T11:42:09.451Z,1.38
2022-08-10T11:44:34.774Z,1.67
2022-08-10T11:46:57.357Z,0.40
2022-08-10T11:49:33.893Z,0.77
2022-08-10T11:51:55.159Z,0.45
2022-08-10T11:54:07.633Z,4.45
2022-08-10T11:56:16.032Z,11.73
2022-08-10T11:58:38.945Z,2.97
2022-08-10T12:00:41.256Z,1.70
2022-08-10T12:03:05.754Z,1.30
2022-08-10T12:05:18.204Z,1.15
2022-08-10T12:10:01.776Z,0.70
2022-08-10T12:10:10.127Z,1.02
2022-08-10T12:12:07.537Z,1.83
2022-08-10T12:14:21.987Z,1.27
2022-08-10T12:16:26.473Z,0.70
2022-08-10T12:18:46.173Z,1.48
2022-08-10T12:20:53.726Z,3.95
2022-08-10T12:23:18.475Z,1.98
2022-08-10T12:25:55.119Z,0.63
2022-08-10T12:28:10.279Z,1.60
2022-08-10T12:30:15.907Z,0.68
2022-08-10T12:32:29.039Z,0.73
2022-08-10T12:35:04.588Z,2.38
2022-08-10T12:37:12.296Z,2.38
2022-08-10T12:39:20.451Z,0.40
2022-08-10T12:41:44.001Z,1.80
2022-08-10T12:44:04.473Z,1.17
2022-08-10T12:46:32.587Z,3.90
2022-08-10T12:49:28.502Z,0.28
2022-08-10T12:51:33.608Z,1.95
2022-08-10T12:53:48.389Z,1.33
2022-08-10T12:55:50.511Z,1.92
2022-08-10T12:57:55.875Z,1.27
2022-08-10T13:00:01.482Z,0.68
2022-08-10T13:02:06.537Z,0.65
2022-08-10T13:04:23.258Z,1.85
2022-08-10T13:06:27.643Z,2.22
2022-08-10T13:08:52.215Z,3.30
2022-08-10T13:11:00.994Z,3.38
2022-08-10T13:13:03.555Z,0.90
2022-08-10T13:15:50.043Z,2.10
2022-08-10T13:17:52.556Z,1.30
2022-08-10T13:19:59.963Z,2.25
2022-08-10T13:24:10.851Z,1.45
2022-08-10T13:26:17.720Z,0.68
2022-08-10T13:28:37.359Z,0.80
2022-08-10T13:30:43.209Z,0.75
2022-08-10T13:32:53.957Z,2.08
2022-08-10T13:35:00.993Z,1.30
2022-08-10T13:37:11.423Z,2.05
2022-08-10T13:39:14.549Z,2.58
2022-08-10T13:41:18.344Z,2.83
2022-08-10T13:43:20.950Z,1.00
2022-08-10T13:45:25.912Z,1.67
2022-08-10T13:47:31.967Z,0.93
2022-08-10T13:49:55.302Z,3.67
2022-08-10T13:51:58.627Z,1.88
2022-08-10T13:54:01.958Z,1.33
2022-08-10T13:56:06.853Z,2.25
2022-08-10T13:58:09.603Z,0.57
2022-08-10T14:00:37.286Z,2.22
2022-08-10T14:02:52.535Z,0.30
2022-08-10T14:04:57.475Z,1.27
2022-08-10T14:07:01.463Z,1.80
2022-08-10T14:09:10.205Z,1.73
2022-08-10T14:11:16.468Z,1.38
2022-08-10T14:13:20.436Z,1.80
2022-08-10T14:15:30.124Z,1.95
2022-08-10T14:17:32.968Z,0.57
2022-08-10T14:19:43.289Z,3.58
2022-08-10T14:21:45.994Z,2.17
2022-08-10T14:23:52.626Z,0.50
2022-08-10T14:26:09.004Z,0.90
2022-08-10T14:28:12.173Z,1.58
2022-08-10T14:30:17.245Z,0.93
2022-08-10T14:32:23.395Z,0.40
2022-08-10T14:36:15.435Z,1.00
2022-08-10T14:37:00.325Z,1.38
2022-08-10T14:39:03.665Z,1.08
2022-08-10T14:41:15.621Z,1.85
2022-08-10T14:43:42.127Z,1.70
2022-08-10T14:45:47.780Z,2.10
2022-08-10T14:47:59.677Z,1.42
2022-08-10T14:50:05.075Z,1.10
2022-08-10T14:52:09.162Z,3.90
2022-08-10T14:54:15.634Z,3.80
2022-08-10T14:56:30.930Z,1.10
2022-08-10T14:59:05.427Z,2.10
2022-08-10T15:01:11.619Z,1.52
2022-08-10T15:04:01.579Z,0.52
2022-08-10T15:05:39.356Z,2.25
2022-08-10T15:07:47.216Z,1.50
2022-08-10T15:10:04.317Z,0.95
2022-08-10T15:12:13.697Z,0.60
2022-08-10T15:14:43.257Z,1.35
2022-08-10T15:16:42.860Z,1.95
2022-08-10T15:18:58.540Z,1.20
2022-08-10T15:21:04.242Z,0.70
2022-08-10T15:23:29.836Z,1.27
2022-08-10T15:25:39.642Z,1.52
2022-08-10T15:28:06.632Z,6.22
2022-08-10T15:30:10.799Z,1.15
2022-08-10T15:32:31.567Z,1.33
2022-08-10T15:34:52.821Z,0.68
2022-08-10T15:37:36.784Z,3.08
2022-08-10T15:40:22.577Z,3.35
2022-08-10T15:44:19.426Z,0.30
2022-08-10T15:46:32.851Z,0.88
2022-08-10T15:48:59.362Z,1.23
2022-08-10T15:51:06.385Z,2.45
2022-08-10T15:53:15.946Z,1.70
2022-08-10T15:55:42.460Z,0.80
2022-08-10T15:58:00.715Z,3.30
2022-08-10T16:00:10.046Z,0.50
2022-08-10T16:02:20.810Z,1.63
2022-08-10T16:04:32.236Z,0.93
2022-08-10T16:06:39.700Z,0.98
2022-08-10T16:08:55.953Z,0.60
2022-08-10T16:11:08.140Z,0.93
2022-08-10T16:13:59.299Z,0.75
2022-08-10T16:15:39.358Z,3.45
2022-08-10T16:17:55.485Z,2.25
2022-08-10T16:20:00.303Z,1.38
2022-08-10T16:22:33.797Z,0.70
2022-08-10T16:24:35.808Z,2.72
2022-08-10T16:26:42.891Z,3.33
2022-08-10T16:28:57.840Z,0.40
2022-08-10T16:31:01.895Z,0.50
2022-08-10T16:33:05.512Z,3.80
2022-08-10T16:35:13.931Z,0.50
2022-08-10T16:37:18.206Z,2.15
2022-08-10T16:39:58.107Z,1.38
2022-08-10T16:42:03.261Z,1.83
2022-08-10T16:44:10.394Z,0.95
2022-08-10T16:46:16.518Z,0.25
2022-08-10T16:48:48.844Z,0.40
2022-08-10T16:50:51.078Z,0.30
2022-08-10T16:52:54.714Z,1.35
2022-08-10T16:55:23.876Z,2.33
2022-08-10T16:57:43.318Z,1.08
2022-08-10T16:59:47.102Z,1.25
2022-08-10T17:01:51.652Z,1.63
2022-08-10T17:04:08.456Z,1.95
2022-08-10T17:06:16.398Z,1.73
2022-08-10T17:08:20.609Z,1.02
2022-08-10T17:10:23.080Z,1.98
2022-08-10T17:12:27.651Z,1.77
2022-08-10T17:14:29.942Z,1.00
2022-08-10T17:16:43.228Z,3.13
2022-08-10T17:18:47.923Z,0.40
2022-08-10T17:20:51.272Z,1.77
2022-08-10T17:22:57.016Z,2.05
2022-08-10T17:25:19.170Z,2.13
2022-08-10T17:28:04.911Z,1.75
2022-08-10T17:29:58.166Z,2.00
2022-08-10T17:32:27.374Z,3.40
2022-08-10T17:34:44.281Z,1.95
2022-08-10T17:36:51.106Z,2.05
2022-08-10T17:38:54.716Z,1.20
2022-08-10T17:41:04.143Z,1.85
2022-08-10T17:43:06.260Z,0.70
2022-08-10T17:45:46.693Z,1.88
2022-08-10T17:47:39.082Z,1.75
2022-08-10T17:49:43.359Z,0.75
2022-08-10T17:51:52.119Z,0.80
2022-08-10T17:53:58.535Z,4.00
2022-08-10T17:56:01.776Z,2.38
2022-08-10T17:58:10.667Z,1.42
2022-08-10T18:00:14.918Z,1.85
2022-08-10T18:02:21.171Z,0.98
2022-08-10T18:04:24.981Z,0.80
2022-08-10T18:06:28.693Z,2.05
2022-08-10T18:08:36.104Z,1.75
2022-08-10T18:10:38.473Z,3.78
2022-08-10T18:12:47.610Z,1.40
2022-08-10T18:14:53.077Z,0.95
2022-08-10T18:16:57.057Z,2.33
2022-08-10T18:19:08.430Z,1.55
2022-08-10T18:21:23.595Z,1.50
2022-08-10T18:23:32.296Z,4.18
2022-08-10T18:25:42.292Z,3.03
2022-08-10T18:28:00.947Z,0.40
2022-08-10T18:30:07.876Z,0.57
2022-08-10T18:32:11.583Z,2.42
2022-08-10T18:34:19.193Z,0.70
2022-08-10T18:36:23.897Z,1.48
2022-08-10T18:38:26.950Z,1.48
2022-08-10T18:40:36.326Z,6.15
2022-08-10T18:42:49.968Z,1.92
2022-08-10T18:45:04.762Z,2.53
2022-08-10T18:47:18.671Z,3.40
2022-08-10T18:49:40.415Z,2.92
2022-08-10T18:51:47.437Z,2.22
2022-08-10T18:53:57.854Z,2.90
2022-08-10T18:56:47.842Z,2.42
2022-08-10T18:59:13.495Z,1.70
2022-08-10T19:01:32.427Z,2.33
2022-08-10T19:03:53.984Z,0.80
2022-08-10T19:06:07.739Z,1.77
2022-08-10T19:08:29.951Z,1.05
2022-08-10T19:11:12.517Z,1.17
2022-08-10T19:13:32.351Z,0.68
2022-08-10T19:15:53.540Z,2.25
2022-08-10T19:18:07.420Z,2.60
2022-08-10T19:20:35.259Z,1.02
2022-08-10T19:23:06.378Z,2.95
2022-08-10T19:26:43.041Z,1.00
2022-08-10T19:28:45.701Z,2.25
2022-08-10T19:31:12.418Z,2.45
2022-08-10T19:33:27.919Z,1.67
2022-08-10T19:36:05.379Z,3.25
2022-08-10T19:38:32.878Z,1.10
2022-08-10T19:40:59.581Z,0.77
2022-08-10T19:43:20.846Z,3.00
2022-08-10T19:46:03.246Z,1.30
2022-08-10T19:49:00.033Z,1.67
2022-08-10T19:51:14.653Z,1.25
2022-08-10T19:53:25.238Z,0.50
2022-08-10T19:55:32.431Z,0.77
2022-08-10T19:57:39.231Z,4.22
2022-08-10T20:00:15.704Z,3.38
2022-08-10T20:02:26.305Z,0.70
2022-08-10T20:04:36.207Z,3.80
2022-08-10T20:07:01.269Z,2.13
2022-08-10T20:09:13.326Z,1.50
2022-08-10T20:14:03.391Z,1.55
2022-08-10T20:16:12.298Z,1.08
2022-08-10T20:18:25.841Z,2.35
2022-08-10T20:20:33.399Z,4.60
2022-08-10T20:22:46.185Z,4.93
2022-08-10T20:25:00.144Z,3.17
2022-08-10T20:28:00.648Z,0.98
2022-08-10T20:30:09.779Z,4.05
2022-08-10T20:32:17.535Z,1.08
2022-08-10T20:34:25.377Z,0.98
2022-08-10T20:36:38.053Z,2.20
2022-08-10T20:38:58.129Z,1.13
2022-08-10T20:41:06.020Z,1.67
2022-08-10T20:43:22.428Z,0.55
2022-08-10T20:45:46.632Z,1.98
2022-08-10T20:48:01.951Z,0.82
2022-08-10T20:50:21.611Z,1.08
2022-08-10T20:52:25.601Z,1.88
2022-08-10T20:54:33.838Z,1.33
2022-08-10T20:56:35.563Z,3.55
2022-08-10T20:59:16.300Z,0.98
2022-08-10T21:02:01.528Z,1.95
2022-08-10T21:04:18.785Z,1.10
2022-08-10T21:06:42.156Z,1.40
2022-08-10T21:09:12.831Z,5.70
2022-08-10T21:11:32.188Z,2.05
2022-08-10T21:14:16.546Z,2.95
2022-08-10T21:16:33.164Z,1.17
2022-08-10T21:18:51.826Z,1.80
2022-08-10T21:21:37.749Z,2.03
2022-08-10T21:23:51.614Z,1.52
2022-08-10T21:26:13.360Z,2.03
2022-08-10T21:28:40.232Z,1.63
2022-08-10T21:30:51.070Z,1.48
2022-08-10T21:33:09.089Z,1.60
2022-08-10T21:35:20.424Z,1.95
2022-08-10T21:37:56.685Z,1.38
2022-08-10T21:40:34.815Z,1.30
2022-08-10T21:43:44.019Z,1.55
2022-08-10T21:46:23.526Z,0.90
2022-08-10T21:49:37.001Z,3.25
2022-08-10T21:52:35.658Z,0.80
2022-08-10T21:55:16.179Z,1.33
2022-08-10T21:58:00.541Z,1.10
2022-08-10T22:00:24.321Z,1.10
2022-08-10T22:02:51.662Z,1.27
2022-08-10T22:05:18.063Z,2.92
2022-08-10T22:07:41.606Z,1.15
2022-08-10T22:10:04.822Z,8.87
2022-08-10T22:12:38.073Z,4.00
2022-08-10T22:15:10.805Z,2.90
2022-08-10T22:18:03.126Z,2.30
2022-08-10T22:20:42.246Z,1.73
2022-08-10T22:23:19.328Z,1.10
2022-08-10T22:26:08.013Z,1.10
2022-08-10T22:28:34.236Z,2.05
2022-08-10T22:34:00.067Z,2.22
2022-08-10T22:36:42.484Z,6.57
2022-08-10T22:40:10.957Z,0.70
2022-08-10T22:42:29.558Z,1.23
2022-08-10T22:45:13.689Z,1.73
2022-08-10T22:47:42.098Z,1.02
2022-08-10T22:49:43.932Z,2.13
2022-08-10T22:52:16.866Z,2.70
2022-08-10T22:54:52.733Z,1.52
2022-08-10T22:57:13.039Z,3.33
2022-08-10T22:59:14.883Z,1.85
2022-08-10T23:02:08.413Z,2.35
2022-08-10T23:04:18.022Z,1.17
2022-08-10T23:06:26.278Z,1.25
2022-08-10T23:08:34.547Z,1.08
2022-08-10T23:10:42.379Z,1.60
2022-08-10T23:13:05.518Z,3.63
2022-08-10T23:15:35.400Z,2.83
2022-08-10T23:18:01.944Z,0.98
2022-08-10T23:20:15.738Z,3.47
2022-08-10T23:22:30.651Z,2.20
2022-08-10T23:24:41.781Z,0.88
2022-08-10T23:26:44.602Z,1.58
2022-08-10T23:28:58.379Z,4.20
2022-08-10T23:31:12.196Z,0.85
2022-08-10T23:33:15.587Z,2.20
2022-08-10T23:36:30.146Z,1.55
2022-08-10T23:37:45.870Z,3.33
2022-08-10T23:39:51.859Z,2.70
2022-08-10T23:42:04.860Z,1.35
2022-08-10T23:44:10.688Z,2.03
2022-08-10T23:46:16.748Z,1.88
2022-08-10T23:48:22.478Z,1.25
2022-08-10T23:50:25.192Z,2.25
2022-08-10T23:52:31.911Z,3.17
2022-08-10T23:54:34.947Z,1.08
2022-08-10T23:56:41.802Z,1.10
2022-08-10T23:58:49.570Z,1.85
